Time;durP1;ratioP1;P1;durP2;ratioP2;P2;SDS_P1;SDS_P2;PMS_P1;PMS_P2;Temp;Humidity;BMP_temperature;BMP_pressure;BME280_temperature;BME280_humidity;BME280_pressure;Samples;Min_cycle;Max_cycle;Signal;HPM_P1;HPM_P2
2022/11/21 00:00:54;;;;;;;;;;;;;;;19.30;46.21;100044.97;5114112;27;19931;-39
2022/11/21 00:03:20;;;;;;;;;;;;;;;19.30;46.46;100044.97;5130723;27;19946;-39
2022/11/21 00:05:47;;;;;;;;;;;;;;;19.30;46.30;100053.22;5113167;27;19923;-39
2022/11/21 00:08:13;;;;;;;;;;;;;;;19.29;46.22;100049.63;5130610;27;19924;-39
2022/11/21 00:10:39;;;;;;;;;;;;;;;19.30;46.45;100050.47;5135683;27;19973;-38
2022/11/21 00:13:05;;;;;;;;;;;;;;;19.29;46.12;100046.88;5115927;27;19923;-39
2022/11/21 00:15:30;;;;;;;;;;;;;;;19.29;46.39;100057.09;5114820;27;20440;-39
2022/11/21 00:17:56;;;;;;;;;;;;;;;19.29;46.21;100046.88;5132899;27;19971;-39
2022/11/21 00:20:21;;;;;;;;;;;;;;;19.30;46.04;100064.28;5131189;27;19927;-38
2022/11/21 00:22:47;;;;;;;;;;;;;;;19.29;46.09;100063.44;5135750;27;19950;-38
2022/11/21 00:25:13;;;;;;;;;;;;;;;19.29;46.22;100060.66;5129487;27;19937;-39
2022/11/21 00:27:38;;;;;;;;;;;;;;;19.29;46.23;100068.94;5130753;27;19935;-37
2022/11/21 00:30:05;;;;;;;;;;;;;;;19.28;46.15;100064.56;5138205;27;19938;-39
2022/11/21 00:32:31;;;;;;;;;;;;;;;19.29;46.26;100068.13;5115503;28;19963;-39
2022/11/21 00:34:56;;;;;;;;;;;;;;;19.29;46.17;100074.47;5131243;27;19927;-38
2022/11/21 00:37:22;;;;;;;;;;;;;;;19.28;45.97;100080.31;5130989;27;20047;-38
2022/11/21 00:39:47;;;;;;;;;;;;;;;19.28;46.44;100069.25;5132377;27;19931;-38
2022/11/21 00:42:13;;;;;;;;;;;;;;;19.28;46.04;100078.38;5134039;27;19933;-39
2022/11/21 00:44:38;;;;;;;;;;;;;;;19.29;46.07;100079.19;5134374;27;19976;-39
2022/11/21 00:47:04;;;;;;;;;;;;;;;19.28;46.18;100072.84;5129945;27;20091;-38
2022/11/21 00:49:29;;;;;;;;;;;;;;;19.29;46.27;100071.72;5130749;27;19935;-40
2022/11/21 00:51:55;;;;;;;;;;;;;;;19.28;46.25;100077.53;5135879;27;19927;-39
2022/11/21 00:54:20;;;;;;;;;;;;;;;19.29;46.36;100076.41;5132978;27;19928;-38
2022/11/21 00:56:46;;;;;;;;;;;;;;;19.28;46.06;100078.38;5123390;27;20369;-39
2022/11/21 00:59:12;;;;;;;;;;;;;;;19.29;46.07;100076.41;5128483;27;19930;-38
2022/11/21 01:01:37;;;;;;;;;;;;;;;19.27;46.16;100079.50;5135996;27;19927;-38
2022/11/21 01:04:03;;;;;;;;;;;;;;;19.28;46.39;100075.59;5130507;27;19934;-39
2022/11/21 01:06:28;;;;;;;;;;;;;;;19.28;46.07;100080.31;5132405;27;19962;-38
2022/11/21 01:08:54;;;;;;;;;;;;;;;19.28;46.31;100078.38;5111577;27;19930;-39
2022/11/21 01:11:20;;;;;;;;;;;;;;;19.28;46.29;100069.25;5129059;27;19923;-38
2022/11/21 01:13:45;;;;;;;;;;;;;;;19.27;46.15;100082.25;5115308;27;20018;-37
2022/11/21 01:16:12;;;;;;;;;;;;;;;19.27;46.17;100078.69;5114536;27;19930;-38
2022/11/21 01:18:38;;;;;;;;;;;;;;;19.28;46.20;100080.31;5132146;27;19969;-39
2022/11/21 01:21:05;;;;;;;;;;;;;;;19.28;46.10;100081.13;5131977;27;19927;-39
2022/11/21 01:23:31;;;;;;;;;;;;;;;19.28;46.41;100088.59;5130037;27;19946;-38
2022/11/21 01:26:04;;;;;;;;;;;;;;;19.28;46.08;100086.66;5138248;27;20291;-37
2022/11/21 01:28:30;;;;;;;;;;;;;;;19.28;45.99;100091.34;5131549;27;20418;-39
2022/11/21 01:31:01;;;;;;;;;;;;;;;19.27;46.39;100093.28;5112059;27;19978;-40
2022/11/21 01:33:26;;;;;;;;;;;;;;;19.28;46.11;100102.41;5132010;27;19954;-39
2022/11/21 01:35:52;;;;;;;;;;;;;;;19.27;46.16;100098.81;5133936;27;20345;-39
2022/11/21 01:38:18;;;;;;;;;;;;;;;19.27;46.28;100107.09;5137443;27;19951;-39
2022/11/21 01:40:43;;;;;;;;;;;;;;;19.27;45.93;100101.56;5130767;27;20006;-39
2022/11/21 01:43:10;;;;;;;;;;;;;;;19.28;46.13;100099.63;5129495;27;19923;-37
2022/11/21 01:45:56;;;;;;;;;;;;;;;19.28;45.94;100088.59;5131129;27;19955;-39
2022/11/21 01:48:24;;;;;;;;;;;;;;;19.27;46.23;100093.28;5116173;27;20084;-39
2022/11/21 01:50:49;;;;;;;;;;;;;;;19.27;46.31;100095.25;5135395;27;19963;-38
2022/11/21 01:53:15;;;;;;;;;;;;;;;19.28;46.01;100096.88;5132583;27;19946;-38
2022/11/21 01:55:41;;;;;;;;;;;;;;;19.27;46.25;100095.25;5135120;27;20192;-38
2022/11/21 01:58:06;;;;;;;;;;;;;;;19.26;46.05;100099.94;5130690;27;19935;-39
2022/11/21 02:00:34;;;;;;;;;;;;;;;19.26;46.05;100102.69;5129593;27;19983;-38
2022/11/21 02:03:01;;;;;;;;;;;;;;;19.26;46.04;100111.00;5112602;27;20390;-38
2022/11/21 02:05:27;;;;;;;;;;;;;;;19.26;46.07;100111.00;5138250;27;19951;-39
2022/11/21 02:07:53;;;;;;;;;;;;;;;19.26;46.21;100111.00;5111865;27;19970;-37
2022/11/21 02:10:19;;;;;;;;;;;;;;;19.27;46.02;100107.09;5129546;27;20468;-38
2022/11/21 02:12:46;;;;;;;;;;;;;;;19.27;46.16;100100.75;5136692;27;19935;-38
2022/11/21 02:15:11;;;;;;;;;;;;;;;19.25;46.45;100098.28;5125800;27;19947;-39
2022/11/21 02:17:37;;;;;;;;;;;;;;;19.26;45.99;100102.69;5111077;28;20399;-39
2022/11/21 02:20:05;;;;;;;;;;;;;;;19.26;46.06;100101.88;5132954;27;19924;-39
2022/11/21 02:22:50;;;;;;;;;;;;;;;19.26;46.20;100101.88;5132510;27;20678;-39
2022/11/21 02:25:18;;;;;;;;;;;;;;;19.26;46.14;100111.00;5114023;27;19963;-37
2022/11/21 02:27:44;;;;;;;;;;;;;;;19.26;46.12;100108.22;5130429;27;19972;-38
2022/11/21 02:30:10;;;;;;;;;;;;;;;19.26;46.08;100112.94;5131632;27;19930;-37
2022/11/21 02:32:36;;;;;;;;;;;;;;;19.26;46.25;100108.22;5117624;27;19923;-39
2022/11/21 02:35:02;;;;;;;;;;;;;;;19.26;46.11;100107.41;5111719;27;20045;-39
2022/11/21 02:37:28;;;;;;;;;;;;;;;19.25;46.06;100111.25;5131723;27;19931;-39
2022/11/21 02:39:53;;;;;;;;;;;;;;;19.25;46.00;100114.03;5112505;27;21273;-39
2022/11/21 02:42:21;;;;;;;;;;;;;;;19.26;45.96;100115.69;5136628;27;19924;-38
2022/11/21 02:45:05;;;;;;;;;;;;;;;19.25;46.41;100108.50;5130615;27;20372;-37
2022/11/21 02:47:30;;;;;;;;;;;;;;;19.26;46.15;100111.00;5110467;28;19923;-38
2022/11/21 02:52:41;;;;;;;;;;;;;;;19.26;46.34;100107.41;5173913;27;20389;-38
2022/11/21 02:55:07;;;;;;;;;;;;;;;19.24;46.13;100102.16;5168279;27;19923;-38
2022/11/21 02:57:33;;;;;;;;;;;;;;;19.24;46.44;100110.44;5168326;27;19931;-39
2022/11/21 02:59:58;;;;;;;;;;;;;;;19.25;46.18;100106.56;5168572;27;19978;-37
2022/11/21 03:02:24;;;;;;;;;;;;;;;19.25;46.18;100105.75;5160523;27;20283;-39
2022/11/21 03:04:49;;;;;;;;;;;;;;;19.26;45.96;100118.44;5152569;27;19931;-38
2022/11/21 03:07:15;;;;;;;;;;;;;;;19.24;46.29;100113.22;5154087;27;19931;-39
2022/11/21 03:09:40;;;;;;;;;;;;;;;19.23;46.02;100111.59;5151882;27;19923;-38
2022/11/21 03:12:07;;;;;;;;;;;;;;;19.25;46.14;100114.84;5155360;27;20271;-38
2022/11/21 03:14:33;;;;;;;;;;;;;;;19.25;46.21;100117.59;5134403;27;19966;-38
2022/11/21 03:16:58;;;;;;;;;;;;;;;19.24;46.15;100120.69;5158361;27;20030;-38
2022/11/21 03:19:24;;;;;;;;;;;;;;;19.25;46.26;100116.78;5157385;27;19923;-37
2022/11/21 03:21:49;;;;;;;;;;;;;;;19.24;46.00;100110.44;5148821;27;19923;-39
2022/11/21 03:24:15;;;;;;;;;;;;;;;19.25;46.04;100111.25;5154210;27;19931;-39
2022/11/21 03:26:41;;;;;;;;;;;;;;;19.24;46.35;100110.44;5156117;27;19924;-38
2022/11/21 03:29:06;;;;;;;;;;;;;;;19.24;46.18;100113.22;5153036;27;20282;-37
2022/11/21 03:31:32;;;;;;;;;;;;;;;19.23;46.05;100114.34;5149594;27;19931;-38
2022/11/21 03:33:57;;;;;;;;;;;;;;;19.23;45.94;100106.06;5158595;27;20390;-39
2022/11/21 03:36:23;;;;;;;;;;;;;;;19.22;46.06;100114.66;5153618;27;19934;-39
2022/11/21 03:38:48;;;;;;;;;;;;;;;19.23;46.10;100111.59;5159245;27;19923;-38
2022/11/21 03:41:29;;;;;;;;;;;;;;;19.24;46.18;100115.97;5152809;27;19935;-39
2022/11/21 03:43:55;;;;;;;;;;;;;;;19.23;46.39;100110.75;5156793;27;19966;-38
2022/11/21 03:46:21;;;;;;;;;;;;;;;19.23;46.14;100116.28;5139069;27;20018;-38
2022/11/21 03:48:46;;;;;;;;;;;;;;;19.23;45.93;100110.75;5133824;27;20022;-37
2022/11/21 03:51:12;;;;;;;;;;;;;;;19.23;46.14;100114.34;5158048;27;19975;-39
2022/11/21 03:53:38;;;;;;;;;;;;;;;19.23;46.31;100113.53;5153848;27;20107;-38
2022/11/21 03:56:03;;;;;;;;;;;;;;;19.23;46.28;100110.75;5160755;27;20298;-37
2022/11/21 03:58:29;;;;;;;;;;;;;;;19.22;46.04;100109.94;5151036;27;19923;-37
2022/11/21 04:00:54;;;;;;;;;;;;;;;19.22;46.14;100101.66;5158202;27;20011;-39
2022/11/21 04:03:20;;;;;;;;;;;;;;;19.22;46.09;100111.88;5146176;27;20070;-38
2022/11/21 04:05:45;;;;;;;;;;;;;;;19.22;46.41;100111.88;5141724;27;20295;-39
2022/11/21 04:08:11;;;;;;;;;;;;;;;19.22;46.02;100125.69;5138788;27;19923;-39
2022/11/21 04:10:36;;;;;;;;;;;;;;;19.22;46.13;100121.00;5131032;27;19930;-37
2022/11/21 04:13:02;;;;;;;;;;;;;;;19.22;46.00;100126.50;5137107;27;19924;-38
2022/11/21 04:15:28;;;;;;;;;;;;;;;19.22;46.40;100131.22;5138835;27;19949;-39
2022/11/21 04:17:53;;;;;;;;;;;;;;;19.22;45.75;100123.75;5116204;27;19938;-38
2022/11/21 04:20:19;;;;;;;;;;;;;;;19.22;45.96;100118.22;5136761;27;19938;-38
2022/11/21 04:22:44;;;;;;;;;;;;;;;19.23;46.02;100121.81;5137442;27;20356;-40
2022/11/21 04:25:10;;;;;;;;;;;;;;;19.22;46.14;100126.50;5135071;27;19938;-37
2022/11/21 04:27:35;;;;;;;;;;;;;;;19.22;46.31;100118.22;5144062;27;19935;-37
2022/11/21 04:30:01;;;;;;;;;;;;;;;19.22;46.01;100132.03;5140757;27;19923;-39
2022/11/21 04:32:27;;;;;;;;;;;;;;;19.22;46.08;100132.03;5134574;27;20020;-37
2022/11/21 04:34:52;;;;;;;;;;;;;;;19.22;46.40;100131.22;5136587;27;19923;-37
2022/11/21 04:37:18;;;;;;;;;;;;;;;19.22;46.46;100132.03;5140946;27;20379;-39
2022/11/21 04:39:43;;;;;;;;;;;;;;;19.21;46.10;100126.78;5138399;27;19930;-39
2022/11/21 04:42:09;;;;;;;;;;;;;;;19.22;46.38;100114.66;5139395;27;19984;-38
2022/11/21 04:44:34;;;;;;;;;;;;;;;19.22;46.35;100117.41;5137950;27;19934;-39
2022/11/21 04:47:00;;;;;;;;;;;;;;;19.22;46.30;100114.66;5137320;27;20303;-39
2022/11/21 04:49:30;;;;;;;;;;;;;;;19.22;46.15;100122.94;5139917;27;20316;-38
2022/11/21 04:51:56;;;;;;;;;;;;;;;19.21;46.09;100118.50;5138811;27;19933;-39
2022/11/21 04:54:21;;;;;;;;;;;;;;;19.21;46.25;100111.06;5139463;27;19930;-38
2022/11/21 04:56:47;;;;;;;;;;;;;;;19.22;46.24;100120.16;5140320;27;19931;-39
2022/11/21 04:59:13;;;;;;;;;;;;;;;19.21;46.18;100119.34;5136928;27;20213;-38
2022/11/21 05:01:38;;;;;;;;;;;;;;;19.21;46.09;100108.31;5138323;27;19988;-38
2022/11/21 05:04:04;;;;;;;;;;;;;;;19.21;46.07;100111.06;5136589;27;19942;-39
2022/11/21 05:06:29;;;;;;;;;;;;;;;19.21;46.26;100108.31;5144729;27;19923;-38
2022/11/21 05:08:55;;;;;;;;;;;;;;;19.21;46.09;100107.47;5137954;27;20287;-39
2022/11/21 05:14:06;;;;;;;;;;;;;;;19.22;46.40;100106.38;5114776;27;20386;-39
2022/11/21 05:16:32;;;;;;;;;;;;;;;19.21;46.19;100102.78;5144962;27;19944;-39
2022/11/21 05:18:58;;;;;;;;;;;;;;;19.21;46.07;100096.44;5124008;27;20442;-38
2022/11/21 05:21:23;;;;;;;;;;;;;;;19.21;46.04;100096.44;5138912;27;19923;-38
2022/11/21 05:23:49;;;;;;;;;;;;;;;19.21;46.12;100093.66;5140031;27;20169;-36
2022/11/21 05:26:14;;;;;;;;;;;;;;;19.21;46.08;100091.75;5135228;27;19927;-38
2022/11/21 05:28:40;;;;;;;;;;;;;;;19.21;46.41;100085.38;5140541;27;19967;-38
2022/11/21 05:31:05;;;;;;;;;;;;;;;19.21;46.19;100071.59;5142409;27;19972;-39
2022/11/21 05:33:31;;;;;;;;;;;;;;;19.21;46.44;100086.22;5118970;27;20291;-39
2022/11/21 05:35:56;;;;;;;;;;;;;;;19.21;46.20;100088.16;5122941;27;19935;-37
2022/11/21 05:38:22;;;;;;;;;;;;;;;19.21;46.11;100082.63;5140980;27;20257;-38
2022/11/21 05:40:48;;;;;;;;;;;;;;;19.20;46.00;100090.09;5139897;27;19968;-38
2022/11/21 05:43:44;;;;;;;;;;;;;;;19.21;46.46;100099.19;5137679;27;19930;-37
2022/11/21 05:45:59;;;;;;;;;;;;;;;19.20;46.26;100092.84;5125698;27;19951;-37
2022/11/21 05:48:24;;;;;;;;;;;;;;;19.21;46.19;100096.44;5136876;27;20355;-37
2022/11/21 05:50:50;;;;;;;;;;;;;;;19.21;46.10;100090.91;5138306;27;20047;-38
2022/11/21 05:53:15;;;;;;;;;;;;;;;19.20;46.15;100087.31;5137588;27;19942;-37
2022/11/21 05:55:41;;;;;;;;;;;;;;;19.20;46.16;100084.56;5131139;27;19932;-39
2022/11/21 05:58:07;;;;;;;;;;;;;;;19.20;46.07;100084.56;5137887;27;20258;-39
2022/11/21 06:00:33;;;;;;;;;;;;;;;19.19;46.34;100091.22;5137261;27;19970;-38
2022/11/21 06:03:31;;;;;;;;;;;;;;;19.20;46.07;100090.09;5138028;27;19937;-39
2022/11/21 06:05:44;;;;;;;;;;;;;;;19.21;46.29;100085.38;5128542;27;19930;-38
2022/11/21 06:08:10;;;;;;;;;;;;;;;19.20;46.02;100084.56;5140975;27;19931;-38
2022/11/21 06:10:35;;;;;;;;;;;;;;;19.20;46.29;100092.03;5137838;27;19935;-38
2022/11/21 06:13:01;;;;;;;;;;;;;;;19.20;46.26;100086.50;5121026;27;19935;-39
2022/11/21 06:15:27;;;;;;;;;;;;;;;19.20;46.45;100081.00;5140439;27;20344;-39
2022/11/21 06:17:52;;;;;;;;;;;;;;;19.20;46.37;100076.28;5132593;27;20430;-37
2022/11/21 06:20:18;;;;;;;;;;;;;;;19.20;46.39;100084.56;5142246;27;19923;-39
2022/11/21 06:22:43;;;;;;;;;;;;;;;19.19;46.14;100074.66;5140103;27;19923;-39
2022/11/21 06:25:09;;;;;;;;;;;;;;;19.21;46.16;100066.06;5133546;27;19939;-38
2022/11/21 06:27:34;;;;;;;;;;;;;;;19.19;46.40;100068.31;5134603;27;20333;-39
2022/11/21 06:30:00;;;;;;;;;;;;;;;19.20;46.43;100067.19;5138240;27;20054;-39
2022/11/21 06:32:25;;;;;;;;;;;;;;;19.19;46.15;100071.91;5137034;27;20386;-38
2022/11/21 06:34:51;;;;;;;;;;;;;;;19.20;46.29;100075.47;5140250;27;19924;-39
2022/11/21 06:37:17;;;;;;;;;;;;;;;19.20;46.14;100069.94;5137028;27;19942;-39
2022/11/21 06:39:42;;;;;;;;;;;;;;;19.20;46.14;100056.16;5138100;27;19957;-37
2022/11/21 06:42:08;;;;;;;;;;;;;;;19.19;46.27;100058.09;5138065;27;19924;-38
2022/11/21 06:44:33;;;;;;;;;;;;;;;19.20;46.08;100058.91;5134845;27;20275;-37
2022/11/21 06:46:59;;;;;;;;;;;;;;;19.20;46.26;100064.44;5137429;27;19937;-38
2022/11/21 06:49:24;;;;;;;;;;;;;;;19.20;46.44;100067.19;5138005;27;19932;-39
2022/11/21 06:51:50;;;;;;;;;;;;;;;19.20;46.58;100065.25;5137993;27;19963;-37
2022/11/21 06:54:15;;;;;;;;;;;;;;;19.20;46.57;100067.19;5130468;27;19927;-38
2022/11/21 06:56:54;;;;;;;;;;;;;;;19.19;46.43;100074.66;5136146;27;20366;-39
2022/11/21 06:59:19;;;;;;;;;;;;;;;19.19;46.22;100071.91;5138219;27;19987;-39
2022/11/21 07:01:45;;;;;;;;;;;;;;;19.19;46.37;100068.31;5130032;27;20008;-39
2022/11/21 07:04:11;;;;;;;;;;;;;;;19.19;46.21;100068.31;5124817;27;19927;-39
2022/11/21 07:06:37;;;;;;;;;;;;;;;19.19;46.47;100071.91;5137264;27;19938;-39
2022/11/21 07:09:02;;;;;;;;;;;;;;;19.20;46.35;100069.94;5127360;27;20022;-38
2022/11/21 07:11:48;;;;;;;;;;;;;;;19.20;46.13;100069.94;5122589;27;20326;-39
2022/11/21 07:14:13;;;;;;;;;;;;;;;19.20;46.66;100067.19;5128913;27;19931;-39
2022/11/21 07:16:39;;;;;;;;;;;;;;;19.20;46.30;100069.94;5137499;27;19931;-38
2022/11/21 07:19:05;;;;;;;;;;;;;;;19.21;46.15;100063.31;5136166;27;19931;-39
2022/11/21 07:21:30;;;;;;;;;;;;;;;19.20;46.36;100053.38;5125021;27;20025;-39
2022/11/21 07:23:56;;;;;;;;;;;;;;;19.19;46.28;100047.06;5138384;27;19945;-38
2022/11/21 07:26:22;;;;;;;;;;;;;;;19.19;46.22;100047.06;5140761;27;19935;-39
2022/11/21 07:28:47;;;;;;;;;;;;;;;19.19;46.62;100044.28;5132108;27;19923;-38
2022/11/21 07:31:13;;;;;;;;;;;;;;;19.19;46.42;100047.06;5135482;27;19946;-38
2022/11/21 07:33:39;;;;;;;;;;;;;;;19.19;46.49;100049.00;5136982;27;20329;-39
2022/11/21 07:36:06;;;;;;;;;;;;;;;19.20;46.21;100050.63;5136913;27;19942;-39
2022/11/21 07:38:31;;;;;;;;;;;;;;;19.20;46.33;100059.72;5128281;27;20021;-39
2022/11/21 07:40:57;;;;;;;;;;;;;;;19.19;46.27;100055.34;5139085;27;19923;-38
2022/11/21 07:43:22;;;;;;;;;;;;;;;19.19;46.26;100047.06;5131977;27;20451;-39
2022/11/21 07:45:48;;;;;;;;;;;;;;;19.19;46.23;100058.09;5136138;27;19927;-39
2022/11/21 07:48:13;;;;;;;;;;;;;;;19.19;46.62;100060.84;5135850;27;19923;-39
2022/11/21 07:50:39;;;;;;;;;;;;;;;19.20;46.52;100056.97;5136948;27;19923;-40
2022/11/21 07:53:05;;;;;;;;;;;;;;;19.19;46.37;100052.56;5120066;27;19931;-39
2022/11/21 07:55:31;;;;;;;;;;;;;;;19.20;46.45;100059.72;5131960;27;20419;-40
2022/11/21 07:58:05;;;;;;;;;;;;;;;19.22;46.49;100053.94;5127071;27;19957;-39
2022/11/21 08:00:31;;;;;;;;;;;;;;;19.24;46.49;100049.72;5125282;27;21714;-38
2022/11/21 08:02:56;;;;;;;;;;;;;;;19.23;46.45;100039.00;5093729;27;19927;-39
2022/11/21 08:05:22;;;;;;;;;;;;;;;19.23;46.58;100036.22;5098022;27;19927;-38
2022/11/21 08:07:47;;;;;;;;;;;;;;;19.22;46.67;100032.66;5118404;27;20612;-37
2022/11/21 08:10:14;;;;;;;;;;;;;;;19.23;46.46;100019.66;5113245;27;20363;-37
2022/11/21 08:12:39;;;;;;;;;;;;;;;19.22;46.68;100010.56;5123138;27;20391;-38
2022/11/21 08:15:05;;;;;;;;;;;;;;;19.23;46.88;100016.91;5122532;27;19928;-37
2022/11/21 08:17:31;;;;;;;;;;;;;;;19.24;46.73;100030.41;5133045;27;20010;-37
2022/11/21 08:19:59;;;;;;;;;;;;;;;19.25;46.49;100033.97;5127214;27;19961;-39
2022/11/21 08:22:24;;;;;;;;;;;;;;;19.27;46.80;100034.50;5128996;27;19992;-39
2022/11/21 08:24:50;;;;;;;;;;;;;;;19.26;46.86;100038.41;5124023;27;19939;-38
2022/11/21 08:27:19;;;;;;;;;;;;;;;19.27;46.79;100045.56;5134436;27;19938;-39
2022/11/21 08:29:45;;;;;;;;;;;;;;;19.26;46.83;100039.22;5125526;27;19984;-39
2022/11/21 08:32:10;;;;;;;;;;;;;;;19.26;46.80;100032.88;5111353;27;19931;-38
2022/11/21 08:34:36;;;;;;;;;;;;;;;19.26;46.56;100030.13;5131006;27;19927;-40
2022/11/21 08:37:01;;;;;;;;;;;;;;;19.27;46.59;100031.75;5133929;27;20333;-39
2022/11/21 08:39:29;;;;;;;;;;;;;;;19.27;46.57;100029.00;5131127;27;19923;-39
2022/11/21 08:42:03;;;;;;;;;;;;;;;19.26;46.59;100033.69;5130076;27;20071;-38
2022/11/21 08:44:29;;;;;;;;;;;;;;;19.28;46.64;100036.13;5125236;27;20418;-39
2022/11/21 08:46:55;;;;;;;;;;;;;;;19.28;46.81;100025.09;5113465;27;20000;-39
2022/11/21 08:49:20;;;;;;;;;;;;;;;19.28;46.70;100025.91;5132941;27;20286;-39
2022/11/21 08:51:48;;;;;;;;;;;;;;;19.28;46.62;100023.16;5130011;27;19927;-37
2022/11/21 08:54:14;;;;;;;;;;;;;;;19.32;46.41;100028.06;5113969;27;20021;-39
2022/11/21 08:56:40;;;;;;;;;;;;;;;19.33;46.43;100021.41;5128337;27;20018;-39
2022/11/21 08:59:06;;;;;;;;;;;;;;;19.33;46.46;100024.19;5132781;27;20272;-37
2022/11/21 09:01:31;;;;;;;;;;;;;;;19.33;46.58;100018.66;5125412;27;19958;-37
2022/11/21 09:03:57;;;;;;;;;;;;;;;19.32;46.71;100023.38;5119032;27;19931;-37
2022/11/21 09:06:23;;;;;;;;;;;;;;;19.32;46.65;100014.28;5126624;27;19923;-38
2022/11/21 09:08:48;;;;;;;;;;;;;;;19.34;46.49;100014.78;5122015;27;19931;-39
2022/11/21 09:11:14;;;;;;;;;;;;;;;19.34;46.60;100012.00;5114408;27;19934;-39
2022/11/21 09:13:39;;;;;;;;;;;;;;;19.33;46.44;100008.44;5122646;27;19979;-39
2022/11/21 09:18:51;;;;;;;;;;;;;;;19.33;46.80;99994.63;5108088;27;20513;-39
2022/11/21 09:21:16;;;;;;;;;;;;;;;19.33;46.35;99997.38;5115412;27;19982;-37
2022/11/21 09:23:42;;;;;;;;;;;;;;;19.34;46.74;99998.22;5106114;27;20375;-41
2022/11/21 09:26:08;;;;;;;;;;;;;;;19.15;48.14;99993.56;5122424;27;19930;-43
2022/11/21 09:28:34;;;;;;;;;;;;;;;19.25;47.79;99993.38;5106272;27;19939;-38
2022/11/21 09:31:01;;;;;;;;;;;;;;;19.24;48.04;99991.75;5124536;27;19946;-41
2022/11/21 09:33:27;;;;;;;;;;;;;;;19.33;47.73;99980.81;5101526;27;20026;-42
2022/11/21 09:35:52;;;;;;;;;;;;;;;19.38;47.45;99977.16;5111306;27;19931;-38
2022/11/21 09:38:18;;;;;;;;;;;;;;;19.39;47.13;99985.16;5120635;27;19931;-40
2022/11/21 09:40:49;;;;;;;;;;;;;;;19.48;47.50;99983.31;5116919;27;19986;-38
2022/11/21 09:43:18;;;;;;;;;;;;;;;19.46;47.16;99984.72;5121438;27;19931;-39
2022/11/21 09:45:51;;;;;;;;;;;;;;;19.44;47.49;99985.03;5112814;27;20143;-38
2022/11/21 09:48:21;;;;;;;;;;;;;;;19.42;47.16;99983.69;5110602;27;20395;-40
2022/11/21 09:50:48;;;;;;;;;;;;;;;19.39;47.33;99987.91;5123277;27;19978;-39
2022/11/21 09:53:21;;;;;;;;;;;;;;;19.40;47.12;99985.97;5114774;27;20345;-39
2022/11/21 09:55:54;;;;;;;;;;;;;;;19.41;47.23;99984.84;5118542;27;20084;-39
2022/11/21 09:58:30;;;;;;;;;;;;;;;19.39;47.02;99982.38;5129037;27;20120;-38
2022/11/21 10:00:55;;;;;;;;;;;;;;;19.39;47.16;99978.81;5108894;27;20018;-39
2022/11/21 10:03:21;;;;;;;;;;;;;;;19.40;46.99;99978.50;5120722;27;19935;-39
2022/11/21 10:05:51;;;;;;;;;;;;;;;19.41;47.23;99990.34;5111962;27;19942;-40
2022/11/21 10:08:37;;;;;;;;;;;;;;;19.41;47.26;99976.56;5107903;27;19974;-40
2022/11/21 10:11:20;;;;;;;;;;;;;;;19.47;46.89;99973.41;5116245;27;20426;-39
2022/11/21 10:13:51;;;;;;;;;;;;;;;19.46;47.09;99968.97;5123807;27;20354;-39
2022/11/21 10:16:20;;;;;;;;;;;;;;;19.44;46.98;99968.47;5127297;27;20019;-40
2022/11/21 10:18:51;;;;;;;;;;;;;;;19.52;47.07;99956.72;5106569;27;19973;-39
2022/11/21 10:21:38;;;;;;;;;;;;;;;19.60;47.44;99955.16;5128926;27;19958;-41
2022/11/21 10:24:07;;;;;;;;;;;;;;;19.60;47.84;99948.84;5110017;27;20306;-38
2022/11/21 10:26:35;;;;;;;;;;;;;;;19.57;48.07;99950.28;5131723;27;19954;-40
2022/11/21 10:29:03;;;;;;;;;;;;;;;19.53;48.14;99944.56;5128246;27;20504;-40
2022/11/21 10:31:31;;;;;;;;;;;;;;;19.50;47.75;99938.81;5122349;27;20156;-39
2022/11/21 10:33:57;;;;;;;;;;;;;;;19.50;48.04;99933.28;5115405;27;21491;-39
2022/11/21 10:36:25;;;;;;;;;;;;;;;19.49;47.67;99935.25;5107783;27;20294;-39
2022/11/21 10:38:51;;;;;;;;;;;;;;;19.48;47.53;99930.03;5093326;27;20025;-39
2022/11/21 10:41:36;;;;;;;;;;;;;;;19.49;48.08;99932.47;5111564;27;19931;-38
2022/11/21 10:47:27;;;;;;;;;;;;;;;19.50;47.90;99908.44;5095634;27;20874;-40
2022/11/21 10:52:48;;;;;;;;;;;;;;;19.48;47.49;99896.91;5145824;27;19926;-32
2022/11/21 10:55:14;;;;;;;;;;;;;;;19.47;47.70;99903.53;5121038;27;20443;-32
2022/11/21 10:57:43;;;;;;;;;;;;;;;19.48;47.57;99897.72;5139003;27;20288;-33
2022/11/21 11:03:06;;;;;;;;;;;;;;;19.45;47.52;99889.22;5145402;27;19949;-38
2022/11/21 11:05:34;;;;;;;;;;;;;;;19.45;47.19;99881.75;5108279;27;19975;-40
2022/11/21 11:08:01;;;;;;;;;;;;;;;19.47;47.70;99878.66;5124565;27;20023;-38
2022/11/21 11:10:26;;;;;;;;;;;;;;;19.47;47.43;99864.88;5125704;27;19966;-38
2022/11/21 11:16:01;;;;;;;;;;;;;;;19.48;46.98;99856.28;5102641;27;20371;-37
2022/11/21 11:18:27;;;;;;;;;;;;;;;19.49;47.55;99854.34;5115009;27;20462;-39
2022/11/21 11:20:53;;;;;;;;;;;;;;;19.49;47.02;99846.06;5115829;27;20014;-37
2022/11/21 11:25:55;;;;;;;;;;;;;;;19.49;47.32;99826.72;5153709;27;19929;-39
2022/11/21 11:28:23;;;;;;;;;;;;;;;19.48;46.92;99822.34;5154236;27;20002;-39
2022/11/21 11:30:49;;;;;;;;;;;;;;;19.47;47.17;99824.28;5147489;27;19963;-39
2022/11/21 11:33:30;;;;;;;;;;;;;;;19.19;46.87;99820.72;5152935;27;20570;-39
2022/11/21 11:35:57;;;;;;;;;;;;;;;19.42;46.79;99809.75;5152627;27;19963;-40
2022/11/21 11:38:23;;;;;;;;;;;;;;;19.46;46.70;99808.81;5147312;27;19934;-39
2022/11/21 11:40:48;;;;;;;;;;;;;;;19.47;46.84;99807.72;5123990;27;19931;-39
2022/11/21 11:48:58;;;;;;;;;;;;;;;19.49;47.10;99788.06;5130428;27;20327;-37
2022/11/21 11:51:45;;;;;;;;;;;;;;;19.45;46.66;99785.09;5126347;27;20115;-38
2022/11/21 11:54:13;;;;;;;;;;;;;;;19.52;46.90;99784.69;5139727;27;20047;-39
2022/11/21 11:56:39;;;;;;;;;;;;;;;19.53;46.56;99783.56;5131964;27;19930;-40
2022/11/21 11:59:24;;;;;;;;;;;;;;;19.52;46.72;99776.41;5149835;27;19927;-37
2022/11/21 12:01:58;;;;;;;;;;;;;;;19.53;46.75;99773.34;5136729;27;19931;-40
2022/11/21 12:04:24;;;;;;;;;;;;;;;19.53;47.04;99769.75;5126943;27;20047;-39
2022/11/21 12:07:05;;;;;;;;;;;;;;;19.54;46.86;99757.56;5152642;27;20030;-38
2022/11/21 12:09:55;;;;;;;;;;;;;;;19.54;47.24;99752.06;5145555;27;19933;-39
2022/11/21 12:12:31;;;;;;;;;;;;;;;19.55;47.09;99748.97;5138694;27;20046;-39
2022/11/21 12:18:14;;;;;;;;;;;;;;;19.55;47.26;99743.44;5139794;27;19989;-40
2022/11/21 12:21:00;;;;;;;;;;;;;;;19.54;47.01;99733.53;5141487;27;19958;-39
2022/11/21 12:23:26;;;;;;;;;;;;;;;19.55;47.22;99729.63;5142243;27;20021;-39
2022/11/21 12:26:04;;;;;;;;;;;;;;;19.56;47.31;99730.47;5150663;27;20432;-40
2022/11/21 12:28:33;;;;;;;;;;;;;;;19.56;47.17;99722.19;5150091;27;19943;-40
2022/11/21 12:31:02;;;;;;;;;;;;;;;19.55;46.88;99707.53;5144685;27;20156;-40
2022/11/21 12:33:27;;;;;;;;;;;;;;;19.53;46.68;99715.34;5128059;27;20390;-39
2022/11/21 12:36:13;;;;;;;;;;;;;;;19.55;47.06;99717.78;5136994;27;20050;-39
2022/11/21 12:39:05;;;;;;;;;;;;;;;19.56;47.21;99711.16;5119235;27;19927;-39
2022/11/21 12:44:53;;;;;;;;;;;;;;;19.57;46.95;99692.63;5109518;27;20045;-40
2022/11/21 12:54:29;;;;;;;;;;;;;;;19.59;47.26;99693.13;5135811;27;20026;-39
2022/11/21 12:56:04;;;;;;;;;;;;;;;19.61;47.62;99680.69;5112403;27;19956;-40
2022/11/21 12:58:31;;;;;;;;;;;;;;;19.65;47.10;99678.09;5138225;27;20037;-39
2022/11/21 13:01:02;;;;;;;;;;;;;;;19.66;47.38;99665.94;5137907;27;20311;-39
2022/11/21 13:03:32;;;;;;;;;;;;;;;19.66;47.21;99663.16;5140529;27;20333;-39
2022/11/21 13:05:57;;;;;;;;;;;;;;;19.64;47.57;99670.94;5133175;27;20220;-39
2022/11/21 13:08:24;;;;;;;;;;;;;;;19.68;47.74;99660.88;5136828;27;19923;-40
2022/11/21 13:14:01;;;;;;;;;;;;;;;19.68;47.48;99655.38;5112922;27;19992;-39
2022/11/21 13:16:38;;;;;;;;;;;;;;;19.66;47.33;99646.59;5145226;27;19970;-39
2022/11/21 13:19:23;;;;;;;;;;;;;;;19.64;47.19;99646.88;5144372;27;20022;-40
2022/11/21 13:21:50;;;;;;;;;;;;;;;19.64;47.63;99635.03;5138919;27;19966;-38
2022/11/21 13:24:35;;;;;;;;;;;;;;;19.66;47.86;99638.31;5145527;27;19923;-40
2022/11/21 13:27:01;;;;;;;;;;;;;;;19.70;47.69;99631.03;5127246;27;19989;-40